Time;durP1;ratioP1;P1;durP2;ratioP2;P2;SDS_P1;SDS_P2;PMS_P1;PMS_P2;Temp;Humidity;BMP_temperature;BMP_pressure;BME280_temperature;BME280_humidity;BME280_pressure;Samples;Min_cycle;Max_cycle;Signal;HPM_P1;HPM_P2
2022/03/07 00:00:00;;;;;;;11.20;5.90;;;;;;;2.34;74.98;102800.47;5055986;28;20031;-71
2022/03/07 00:02:25;;;;;;;11.05;6.10;;;;;;;2.22;75.63;102801.97;5055904;28;20418;-70
2022/03/07 00:04:51;;;;;;;11.50;5.88;;;;;;;2.14;75.26;102799.00;5055952;28;20052;-71
2022/03/07 00:07:16;;;;;;;11.05;6.72;;;;;;;2.01;75.54;102798.84;5055906;28;20033;-70
2022/03/07 00:09:41;;;;;;;12.25;6.13;;;;;;;1.96;76.19;102787.25;5055995;28;20067;-70
2022/03/07 00:12:07;;;;;;;11.48;6.18;;;;;;;1.94;76.09;102796.69;5055801;28;20021;-70
2022/03/07 00:14:32;;;;;;;10.05;6.05;;;;;;;1.93;75.80;102789.97;5055811;28;20057;-70
2022/03/07 00:16:58;;;;;;;9.95;6.13;;;;;;;1.90;76.18;102796.03;5055719;28;20025;-70
2022/03/07 00:19:23;;;;;;;10.18;6.15;;;;;;;1.83;76.52;102802.34;5055650;28;20051;-70
2022/03/07 00:21:48;;;;;;;12.57;5.80;;;;;;;1.81;76.24;102806.69;5037542;28;20021;-70
2022/03/07 00:24:13;;;;;;;13.10;5.80;;;;;;;1.77;76.81;102800.94;5037591;28;20040;-71
2022/03/07 00:26:39;;;;;;;12.00;5.82;;;;;;;1.80;77.01;102810.16;5055501;28;20021;-70
2022/03/07 00:29:04;;;;;;;10.23;5.50;;;;;;;1.71;76.51;102806.34;5037559;28;20039;-71
2022/03/07 00:31:29;;;;;;;8.65;5.80;;;;;;;1.66;76.75;102805.78;5055477;28;20024;-71
2022/03/07 00:33:55;;;;;;;12.10;6.32;;;;;;;1.61;77.09;102797.53;5055495;28;20040;-71
2022/03/07 00:36:20;;;;;;;10.35;5.93;;;;;;;1.52;76.96;102810.75;5055283;28;20479;-70
2022/03/07 00:38:47;;;;;;;9.43;5.80;;;;;;;1.42;77.57;102814.69;5037431;28;20103;-70
2022/03/07 00:41:13;;;;;;;12.07;5.70;;;;;;;1.49;77.56;102813.44;5037156;28;20487;-70
2022/03/07 00:43:39;;;;;;;8.73;5.60;;;;;;;1.46;77.55;102811.88;5036321;28;20032;-70
2022/03/07 00:46:05;;;;;;;11.80;5.90;;;;;;;1.42;77.76;102812.94;5055256;28;20403;-70
2022/03/07 00:48:30;;;;;;;10.23;5.63;;;;;;;1.38;77.90;102813.16;5037357;28;20021;-71
2022/03/07 00:50:56;;;;;;;11.98;6.00;;;;;;;1.30;77.54;102809.28;5055198;28;20021;-71
2022/03/07 00:53:24;;;;;;;9.07;5.70;;;;;;;1.31;77.80;102812.66;5036963;28;20051;-70
2022/03/07 00:55:51;;;;;;;13.13;5.97;;;;;;;1.24;77.80;102816.44;5054984;28;20033;-70
2022/03/07 00:58:16;;;;;;;8.77;5.50;;;;;;;1.26;77.37;102812.88;5037060;28;20422;-71
2022/03/07 01:00:42;;;;;;;11.18;5.90;;;;;;;1.17;77.79;102818.44;5054841;28;20054;-70
2022/03/07 01:03:10;;;;;;;11.75;6.70;;;;;;;1.08;78.24;102824.81;5037022;28;20066;-71
2022/03/07 01:05:35;;;;;;;12.35;6.47;;;;;;;1.07;77.88;102825.72;5036776;28;20058;-70
2022/03/07 01:08:01;;;;;;;13.43;6.50;;;;;;;0.99;78.38;102824.44;5054761;28;20020;-72
2022/03/07 01:10:26;;;;;;;9.70;5.60;;;;;;;0.98;78.26;102821.06;5036768;28;20037;-71
2022/03/07 01:12:52;;;;;;;9.75;6.00;;;;;;;0.94;78.26;102834.81;5054721;28;20021;-71
2022/03/07 01:15:18;;;;;;;13.55;6.35;;;;;;;0.83;78.78;102837.88;5054553;28;20029;-71
2022/03/07 01:17:43;;;;;;;11.73;6.20;;;;;;;0.80;79.13;102829.56;5054589;28;20047;-71
2022/03/07 01:20:10;;;;;;;7.95;5.55;;;;;;;0.74;79.42;102835.78;5054534;28;20036;-71
2022/03/07 01:22:36;;;;;;;11.02;5.85;;;;;;;0.87;79.17;102836.03;5054376;28;20020;-69
2022/03/07 01:25:03;;;;;;;9.70;5.75;;;;;;;1.01;78.70;102830.28;5036536;28;20388;-69
2022/03/07 01:27:28;;;;;;;9.98;5.88;;;;;;;0.96;78.55;102830.50;5036283;28;20498;-69
2022/03/07 01:29:53;;;;;;;11.25;5.63;;;;;;;0.97;78.50;102833.84;5054356;28;20028;-70
2022/03/07 01:32:19;;;;;;;11.50;5.60;;;;;;;0.91;77.96;102829.88;5054352;28;20031;-70
2022/03/07 01:34:44;;;;;;;10.52;6.07;;;;;;;0.86;77.91;102822.50;5054216;28;20036;-71
2022/03/07 01:37:09;;;;;;;9.30;5.68;;;;;;;0.83;78.09;102821.78;5036306;28;20024;-70
2022/03/07 01:39:35;;;;;;;12.48;5.68;;;;;;;0.86;78.38;102831.81;5036186;28;20111;-69
2022/03/07 01:42:00;;;;;;;9.73;5.72;;;;;;;0.82;78.44;102830.34;5054051;28;20503;-69
2022/03/07 01:44:29;;;;;;;9.32;5.93;;;;;;;0.85;78.00;102823.38;5054145;28;20060;-69
2022/03/07 01:46:55;;;;;;;10.43;5.75;;;;;;;0.74;78.69;102828.13;5054121;28;20031;-70
2022/03/07 01:49:22;;;;;;;8.50;5.90;;;;;;;0.78;78.09;102833.94;5053914;28;20017;-70
2022/03/07 01:51:48;;;;;;;14.98;6.10;;;;;;;0.73;78.29;102835.88;5053893;28;20025;-70
2022/03/07 01:54:16;;;;;;;10.50;5.78;;;;;;;0.64;78.60;102837.13;5053425;28;20041;-70
2022/03/07 01:56:45;;;;;;;12.07;5.95;;;;;;;0.65;78.81;102826.84;5053766;28;20039;-70
2022/03/07 01:59:11;;;;;;;9.43;5.88;;;;;;;0.70;78.48;102825.81;5053770;28;20522;-70
2022/03/07 02:01:37;;;;;;;12.07;5.82;;;;;;;0.67;78.51;102826.78;5035813;28;20025;-70
2022/03/07 02:04:04;;;;;;;13.00;6.40;;;;;;;0.60;78.06;102818.59;5035908;28;20029;-70
2022/03/07 02:06:29;;;;;;;9.43;5.75;;;;;;;0.51;78.77;102818.22;5035864;28;20021;-69
2022/03/07 02:08:55;;;;;;;10.18;5.70;;;;;;;0.42;78.33;102817.75;5035755;28;20032;-69
2022/03/07 02:11:21;;;;;;;13.43;6.05;;;;;;;0.41;78.92;102810.19;5053434;28;20475;-69
2022/03/07 02:13:47;;;;;;;10.75;6.07;;;;;;;0.55;79.16;102823.09;5035710;28;20074;-70
2022/03/07 02:16:14;;;;;;;11.68;6.03;;;;;;;0.58;78.69;102810.25;5035705;28;20043;-69
2022/03/07 02:18:40;;;;;;;14.30;6.03;;;;;;;0.45;78.92;102807.44;5035650;28;20048;-69
2022/03/07 02:21:10;;;;;;;10.60;5.93;;;;;;;0.36;79.33;102812.94;5053298;28;20404;-69
2022/03/07 02:23:36;;;;;;;9.60;6.07;;;;;;;0.31;79.41;102806.41;5035583;28;20384;-70
2022/03/07 02:26:12;;;;;;;12.50;6.50;;;;;;;0.25;79.51;102815.16;5035506;28;20025;-70
2022/03/07 02:28:42;;;;;;;11.05;6.38;;;;;;;0.25;79.45;102810.06;5053288;28;20479;-71
2022/03/07 02:31:08;;;;;;;12.40;6.65;;;;;;;0.14;79.38;102802.91;5053244;28;20029;-70
2022/03/07 02:33:34;;;;;;;11.43;6.22;;;;;;;0.14;80.22;102815.63;5053202;28;20052;-70
2022/03/07 02:36:00;;;;;;;11.20;6.00;;;;;;;-0.02;80.44;102812.13;5053348;28;20025;-70
2022/03/07 02:38:25;;;;;;;10.50;6.47;;;;;;;-0.08;80.90;102813.22;5053166;28;20025;-70
2022/03/07 02:40:51;;;;;;;10.30;6.07;;;;;;;-0.10;81.25;102806.56;5035279;28;20434;-70
2022/03/07 02:43:16;;;;;;;14.02;6.05;;;;;;;0.03;80.63;102801.75;5053064;28;20036;-69
2022/03/07 02:45:43;;;;;;;9.80;6.25;;;;;;;0.06;80.49;102814.31;5053206;28;20024;-70
2022/03/07 02:48:08;;;;;;;11.23;6.78;;;;;;;0.10;80.25;102813.31;5053052;28;20104;-71
2022/03/07 02:50:34;;;;;;;10.93;6.28;;;;;;;0.15;80.02;102804.59;5035319;28;20064;-71
2022/03/07 02:52:59;;;;;;;9.55;6.40;;;;;;;0.14;79.67;102799.56;5034965;28;20083;-71
2022/03/07 02:55:24;;;;;;;10.25;6.03;;;;;;;0.22;79.91;102800.84;5052938;28;20037;-71
2022/03/07 02:57:50;;;;;;;9.68;6.32;;;;;;;0.18;79.39;102796.00;5035144;28;20051;-71
2022/03/07 03:00:16;;;;;;;10.02;5.85;;;;;;;0.27;79.86;102802.38;5052918;28;20040;-72
2022/03/07 03:02:41;;;;;;;11.52;6.15;;;;;;;0.20;79.84;102801.81;5052872;28;20384;-71
2022/03/07 03:05:07;;;;;;;11.25;6.07;;;;;;;0.15;79.91;102791.06;5053197;28;20099;-71
2022/03/07 03:07:33;;;;;;;9.82;6.30;;;;;;;0.17;80.22;102795.19;5057014;28;20033;-72
2022/03/07 03:09:58;;;;;;;10.02;6.22;;;;;;;0.19;80.72;102797.63;5056880;28;20099;-71
2022/03/07 03:12:24;;;;;;;11.18;5.88;;;;;;;0.19;80.46;102795.91;5056953;28;20017;-71
2022/03/07 03:14:50;;;;;;;8.88;5.90;;;;;;;0.28;80.65;102801.47;5056978;28;20025;-70
2022/03/07 03:17:16;;;;;;;10.98;6.68;;;;;;;0.43;80.13;102799.06;5056757;28;20031;-70
2022/03/07 03:19:42;;;;;;;10.63;6.22;;;;;;;0.38;79.68;102801.00;5038920;28;20021;-70
2022/03/07 03:22:07;;;;;;;10.77;6.13;;;;;;;0.33;80.11;102797.81;5038783;28;20021;-76
2022/03/07 03:24:32;;;;;;;9.68;6.05;;;;;;;0.36;79.65;102796.88;5038822;28;20511;-76
2022/03/07 03:26:58;;;;;;;12.02;6.15;;;;;;;0.44;79.99;102795.63;5038808;28;20027;-75
2022/03/07 03:29:23;;;;;;;10.65;5.90;;;;;;;0.43;79.64;102799.06;5038665;28;20021;-76
2022/03/07 03:31:49;;;;;;;11.27;6.43;;;;;;;0.42;79.52;102796.56;5056609;28;20079;-76
2022/03/07 03:34:14;;;;;;;9.73;6.40;;;;;;;0.43;79.39;102795.66;5038579;28;20029;-76
2022/03/07 03:36:39;;;;;;;9.75;6.47;;;;;;;0.35;79.69;102790.13;5038541;28;20115;-76
2022/03/07 03:39:05;;;;;;;11.93;6.25;;;;;;;0.33;79.81;102794.47;5056342;28;20021;-75
2022/03/07 03:41:30;;;;;;;9.27;6.13;;;;;;;0.27;80.53;102802.38;5056277;28;20430;-76
2022/03/07 03:43:55;;;;;;;9.90;6.35;;;;;;;0.24;80.02;102802.53;5056445;28;20021;-76
2022/03/07 03:46:21;;;;;;;11.40;6.30;;;;;;;0.17;80.41;102796.88;5056293;28;20040;-76
2022/03/07 03:48:46;;;;;;;10.25;6.10;;;;;;;0.18;80.49;102806.16;5038304;28;20048;-77
2022/03/07 03:51:11;;;;;;;9.63;6.57;;;;;;;0.12;80.73;102791.19;5056264;28;20420;-76
2022/03/07 03:53:36;;;;;;;11.73;6.88;;;;;;;0.16;80.24;102805.41;5055928;28;20104;-75
2022/03/07 03:56:02;;;;;;;10.25;6.43;;;;;;;0.13;80.30;102800.47;5038267;28;20383;-76
2022/03/07 03:58:27;;;;;;;9.52;6.63;;;;;;;0.10;80.29;102798.06;5056134;28;20108;-76
2022/03/07 04:00:53;;;;;;;11.93;6.38;;;;;;;0.08;80.11;102794.75;5037970;28;20025;-76
2022/03/07 04:03:18;;;;;;;10.45;6.80;;;;;;;0.08;80.21;102793.03;5038198;28;20025;-76
2022/03/07 04:05:44;;;;;;;9.80;6.50;;;;;;;0.04;80.46;102790.72;5038201;28;20037;-77
2022/03/07 04:08:09;;;;;;;12.35;6.32;;;;;;;0.13;79.58;102797.91;5055844;28;20029;-76
2022/03/07 04:10:34;;;;;;;9.48;6.32;;;;;;;0.16;80.33;102790.16;5055784;28;20125;-77
2022/03/07 04:13:00;;;;;;;11.10;6.32;;;;;;;0.12;79.86;102794.56;5055757;28;20472;-76
2022/03/07 04:15:26;;;;;;;12.00;6.25;;;;;;;0.09;79.94;102788.78;5055712;28;20025;-77
2022/03/07 04:17:51;;;;;;;9.80;6.50;;;;;;;0.02;80.26;102792.47;5055626;28;20086;-76
2022/03/07 04:20:17;;;;;;;10.27;6.53;;;;;;;0.03;81.08;102794.97;5055691;28;20024;-76
2022/03/07 04:22:43;;;;;;;10.80;6.72;;;;;;;-0.02;80.72;102786.72;5037566;28;20041;-77
2022/03/07 04:25:08;;;;;;;12.48;6.25;;;;;;;-0.05;80.63;102785.13;5037719;28;20017;-75
2022/03/07 04:27:34;;;;;;;9.10;5.95;;;;;;;-0.03;80.30;102793.53;5055550;28;20055;-76
2022/03/07 04:30:03;;;;;;;10.85;6.47;;;;;;;-0.07;80.18;102799.63;5037599;28;20079;-76
2022/03/07 04:32:28;;;;;;;14.48;6.70;;;;;;;-0.08;80.74;102797.97;5037608;28;20013;-76
2022/03/07 04:34:53;;;;;;;11.63;6.85;;;;;;;-0.13;80.39;102794.00;5037470;28;20025;-77
2022/03/07 04:37:19;;;;;;;12.05;6.40;;;;;;;-0.19;80.24;102795.09;5037600;28;20028;-75
2022/03/07 04:39:44;;;;;;;11.18;7.18;;;;;;;-0.18;80.65;102796.72;5037474;28;20024;-76
2022/03/07 04:42:09;;;;;;;9.30;6.25;;;;;;;-0.26;80.53;102801.31;5055395;28;20029;-76
2022/03/07 04:44:35;;;;;;;11.15;6.30;;;;;;;-0.28;80.73;102798.84;5055162;28;20025;-77
2022/03/07 04:47:00;;;;;;;13.63;6.95;;;;;;;-0.35;80.85;102801.72;5037353;28;20028;-76
2022/03/07 04:49:25;;;;;;;12.20;6.50;;;;;;;-0.47;81.52;102800.53;5055240;28;20159;-76
2022/03/07 04:51:50;;;;;;;10.60;6.35;;;;;;;-0.44;80.66;102805.47;5037268;28;20376;-76
2022/03/07 04:54:16;;;;;;;12.43;6.00;;;;;;;-0.42;80.50;102806.25;5037256;28;20045;-76
2022/03/07 04:56:47;;;;;;;11.55;6.32;;;;;;;-0.40;79.93;102811.25;5055297;28;20025;-75
2022/03/07 04:59:13;;;;;;;10.32;6.65;;;;;;;-0.39;80.32;102811.19;5055112;28;20036;-76
2022/03/07 05:01:39;;;;;;;10.82;6.80;;;;;;;-0.35;80.48;102810.16;5054821;28;20025;-76
2022/03/07 05:04:05;;;;;;;10.02;6.55;;;;;;;-0.34;80.48;102801.66;5054941;28;20024;-76
2022/03/07 05:06:30;;;;;;;10.25;6.22;;;;;;;-0.38;80.32;102804.41;5054924;28;20021;-75
2022/03/07 05:08:55;;;;;;;12.60;6.63;;;;;;;-0.41;80.44;102802.81;5054777;28;20021;-77
2022/03/07 05:11:21;;;;;;;8.65;5.97;;;;;;;-0.39;80.66;102800.22;5036882;28;20108;-77
2022/03/07 05:13:46;;;;;;;10.07;6.55;;;;;;;-0.44;80.81;102807.19;5054768;28;20383;-76
2022/03/07 05:16:11;;;;;;;13.20;7.07;;;;;;;-0.48;81.18;102809.06;5020163;28;20025;-77
2022/03/07 05:18:36;;;;;;;11.13;6.95;;;;;;;-0.55;81.42;102792.41;5054563;28;20031;-76
2022/03/07 05:21:02;;;;;;;10.73;6.82;;;;;;;-0.69;80.72;102788.75;5036683;28;20357;-76
2022/03/07 05:23:27;;;;;;;13.25;7.18;;;;;;;-0.61;81.74;102808.72;5054490;28;20064;-77
2022/03/07 05:25:52;;;;;;;13.65;7.50;;;;;;;-0.64;81.63;102811.41;5054550;28;20521;-76
2022/03/07 05:28:18;;;;;;;13.07;7.22;;;;;;;-0.66;81.79;102810.66;5035847;28;20032;-76
2022/03/07 05:30:43;;;;;;;14.85;7.25;;;;;;;-0.71;81.47;102810.03;5036467;28;20031;-77
2022/03/07 05:33:08;;;;;;;12.30;7.47;;;;;;;-0.67;81.69;102819.16;5054465;28;20037;-75
2022/03/07 05:35:34;;;;;;;14.27;7.70;;;;;;;-0.70;81.80;102819.28;5036361;28;20387;-76
2022/03/07 05:37:59;;;;;;;14.05;7.50;;;;;;;-0.74;81.38;102815.22;5036372;28;20056;-76
2022/03/07 05:40:25;;;;;;;16.48;7.30;;;;;;;-0.72;81.53;102834.59;5036149;28;20036;-75
2022/03/07 05:42:51;;;;;;;14.38;7.57;;;;;;;-0.76;81.94;102832.22;5054187;28;20028;-76
2022/03/07 05:45:16;;;;;;;12.70;7.35;;;;;;;-0.79;82.10;102837.44;5054095;28;20498;-76
2022/03/07 05:47:42;;;;;;;11.95;7.28;;;;;;;-0.78;81.63;102826.38;5054136;28;20059;-76
2022/03/07 05:50:09;;;;;;;12.25;7.60;;;;;;;-0.77;80.84;102833.13;5054006;28;20071;-76
2022/03/07 05:52:35;;;;;;;11.70;7.43;;;;;;;-0.77;80.87;102828.06;5053996;28;20411;-76
2022/03/07 05:55:00;;;;;;;14.18;7.53;;;;;;;-0.73;81.29;102832.91;5035938;28;20040;-76
2022/03/07 05:57:25;;;;;;;13.00;7.00;;;;;;;-0.72;80.95;102833.75;5035974;28;20025;-76
2022/03/07 05:59:51;;;;;;;14.73;7.70;;;;;;;-0.78;80.33;102826.38;5035905;28;20024;-76
2022/03/07 06:02:16;;;;;;;10.63;6.95;;;;;;;-0.76;80.99;102835.59;5035760;28;20395;-76
2022/03/07 06:04:42;;;;;;;12.32;7.88;;;;;;;-0.78;80.46;102847.50;5035848;28;20401;-76
2022/03/07 06:07:07;;;;;;;13.38;7.55;;;;;;;-0.78;81.09;102849.22;5053682;28;20028;-76
2022/03/07 06:09:33;;;;;;;12.35;7.90;;;;;;;-0.77;81.03;102838.22;5053837;28;20027;-76
2022/03/07 06:11:58;;;;;;;16.83;8.32;;;;;;;-0.75;81.27;102838.94;5035565;28;20052;-76
2022/03/07 06:14:23;;;;;;;14.68;9.05;;;;;;;-0.68;80.84;102850.50;5053514;28;20418;-76
2022/03/07 06:16:48;;;;;;;15.23;8.98;;;;;;;-0.71;80.31;102841.31;5035592;28;20025;-76
2022/03/07 06:19:14;;;;;;;16.52;8.95;;;;;;;-0.68;80.80;102837.81;5035597;28;20028;-75
2022/03/07 06:21:39;;;;;;;15.32;7.97;;;;;;;-0.67;80.73;102844.53;5035439;28;20125;-77
2022/03/07 06:24:05;;;;;;;12.63;8.25;;;;;;;-0.66;80.58;102848.75;5035348;28;20391;-76
2022/03/07 06:26:30;;;;;;;14.90;8.32;;;;;;;-0.66;80.78;102845.34;5053373;28;20098;-76
2022/03/07 06:28:56;;;;;;;17.02;8.98;;;;;;;-0.63;80.77;102855.38;5035399;28;20025;-76
2022/03/07 06:31:21;;;;;;;16.67;8.65;;;;;;;-0.59;80.67;102859.47;5053250;28;20494;-76
2022/03/07 06:33:46;;;;;;;15.75;9.63;;;;;;;-0.57;80.67;102865.31;5053270;28;20365;-75
2022/03/07 06:36:12;;;;;;;20.80;10.25;;;;;;;-0.58;80.52;102851.78;5035211;28;20029;-76
2022/03/07 06:38:39;;;;;;;19.40;9.38;;;;;;;-0.55;80.25;102860.97;5053196;28;20033;-76
2022/03/07 06:41:05;;;;;;;16.02;9.43;;;;;;;-0.46;80.42;102853.81;5052148;28;20031;-76
2022/03/07 06:43:30;;;;;;;16.60;9.23;;;;;;;-0.49;80.04;102845.47;5035681;28;20112;-77
2022/03/07 06:45:56;;;;;;;16.15;9.95;;;;;;;-0.41;80.39;102853.63;5034757;28;20040;-76
2022/03/07 06:48:21;;;;;;;23.92;11.25;;;;;;;-0.35;80.11;102850.00;5053078;28;20033;-76
2022/03/07 06:50:47;;;;;;;23.15;11.85;;;;;;;-0.26;79.85;102852.13;5053439;28;20025;-76
2022/03/07 06:53:13;;;;;;;22.75;11.45;;;;;;;-0.23;80.24;102844.41;5035077;28;20080;-76
2022/03/07 06:55:38;;;;;;;20.15;11.50;;;;;;;-0.21;79.79;102845.16;5053442;28;20100;-76
2022/03/07 06:58:03;;;;;;;17.38;10.45;;;;;;;-0.21;79.31;102839.25;5053401;28;20025;-76
2022/03/07 07:00:29;;;;;;;20.60;10.05;;;;;;;-0.06;79.81;102861.44;5053043;28;20028;-76
2022/03/07 07:02:54;;;;;;;17.30;10.13;;;;;;;-0.02;79.66;102863.81;5052021;28;20442;-75
2022/03/07 07:05:20;;;;;;;14.88;9.43;;;;;;;0.08;79.45;102866.75;5052900;28;20561;-76
2022/03/07 07:07:45;;;;;;;15.57;10.07;;;;;;;0.14;79.90;102858.84;5033717;28;20112;-76
2022/03/07 07:10:13;;;;;;;16.15;9.88;;;;;;;0.18;79.61;102859.56;5034891;28;20550;-76
2022/03/07 07:12:38;;;;;;;16.75;9.73;;;;;;;0.20;79.33;102853.53;5052666;28;20096;-76
2022/03/07 07:15:06;;;;;;;14.57;9.02;;;;;;;0.36;79.26;102863.00;5034496;28;20210;-76
2022/03/07 07:17:31;;;;;;;14.52;9.13;;;;;;;0.43;79.16;102870.28;5052465;28;20522;-77
2022/03/07 07:19:57;;;;;;;14.55;9.45;;;;;;;0.49;79.23;102866.66;5034574;28;20028;-76
2022/03/07 07:22:22;;;;;;;15.02;9.82;;;;;;;0.63;79.23;102856.66;5051799;28;20087;-76
2022/03/07 07:24:47;;;;;;;17.08;9.15;;;;;;;0.68;78.88;102857.25;5033072;28;20123;-76
2022/03/07 07:27:12;;;;;;;17.25;8.95;;;;;;;0.72;78.57;102865.59;5050682;28;20067;-76
2022/03/07 07:29:38;;;;;;;15.32;9.65;;;;;;;1.02;78.60;102859.94;5032860;28;20025;-76
2022/03/07 07:32:03;;;;;;;15.93;9.80;;;;;;;1.12;78.11;102868.75;5050717;28;20099;-74
2022/03/07 07:34:29;;;;;;;19.40;9.80;;;;;;;1.13;78.60;102858.50;5050755;28;20064;-76
2022/03/07 07:36:54;;;;;;;16.48;9.23;;;;;;;1.25;78.10;102864.72;5033140;28;20495;-76
2022/03/07 07:39:20;;;;;;;18.20;9.65;;;;;;;1.40;77.77;102857.22;5052552;28;20471;-76
2022/03/07 07:41:45;;;;;;;13.98;9.43;;;;;;;1.42;77.72;102860.53;5034519;28;20111;-76
2022/03/07 07:44:11;;;;;;;16.65;9.80;;;;;;;3.05;73.53;102858.69;5052609;28;20024;-76
2022/03/07 07:46:36;;;;;;;16.92;8.85;;;;;;;6.04;62.19;102859.56;5052631;28;20024;-77
2022/03/07 07:49:02;;;;;;;14.05;8.50;;;;;;;6.97;58.17;102870.09;5035093;28;20025;-76
2022/03/07 07:51:27;;;;;;;13.48;7.93;;;;;;;7.23;58.08;102869.00;5053061;28;20102;-77
2022/03/07 07:53:53;;;;;;;16.63;8.82;;;;;;;6.99;57.48;102879.34;5055738;28;20503;-77
2022/03/07 07:56:18;;;;;;;14.82;8.35;;;;;;;7.32;55.66;102862.34;5036686;28;20025;-76
2022/03/07 07:58:44;;;;;;;12.10;8.38;;;;;;;8.31;53.07;102865.94;5035990;28;20024;-77
2022/03/07 08:01:09;;;;;;;14.75;8.45;;;;;;;8.64;52.24;102861.66;5054115;28;20495;-75
2022/03/07 08:03:34;;;;;;;12.77;8.30;;;;;;;7.62;54.85;102879.00;5054204;28;20154;-75
2022/03/07 08:06:00;;;;;;;12.80;8.38;;;;;;;8.47;54.10;102879.28;5054059;28;20464;-76
2022/03/07 08:08:26;;;;;;;12.82;8.52;;;;;;;9.88;49.40;102875.41;5054175;28;20403;-76
2022/03/07 08:10:51;;;;;;;18.58;8.73;;;;;;;10.06;47.15;102872.19;5054952;28;20021;-77
2022/03/07 08:13:16;;;;;;;17.17;8.88;;;;;;;10.91;45.59;102876.78;5037956;28;20025;-77
2022/03/07 08:15:42;;;;;;;11.05;7.72;;;;;;;11.11;43.92;102869.81;5055823;28;20025;-76
2022/03/07 08:18:08;;;;;;;12.63;8.02;;;;;;;11.10;43.80;102880.31;5055850;28;20495;-77
2022/03/07 08:20:33;;;;;;;14.48;8.60;;;;;;;11.53;43.48;102875.41;5055386;28;20033;-77
2022/03/07 08:22:59;;;;;;;13.18;7.43;;;;;;;11.69;42.99;102880.00;5055716;28;20025;-76
2022/03/07 08:25:25;;;;;;;13.55;7.72;;;;;;;12.60;40.13;102876.59;5055700;28;20515;-77
2022/03/07 08:27:50;;;;;;;11.75;7.15;;;;;;;12.58;39.40;102879.34;5055540;28;20472;-77
2022/03/07 08:30:18;;;;;;;12.27;7.00;;;;;;;12.54;40.19;102875.41;5055569;28;20021;-77
2022/03/07 08:32:43;;;;;;;11.15;7.40;;;;;;;12.68;39.03;102871.47;5055522;28;20423;-77
2022/03/07 08:35:10;;;;;;;13.80;7.60;;;;;;;12.77;38.78;102880.13;5055623;28;20021;-77
2022/03/07 08:37:36;;;;;;;14.55;7.72;;;;;;;12.76;38.26;102868.16;5056091;28;20036;-74
2022/03/07 08:40:03;;;;;;;13.15;7.75;;;;;;;13.24;38.91;102872.06;5055302;28;20017;-74
2022/03/07 08:42:29;;;;;;;10.95;7.32;;;;;;;13.50;37.32;102864.25;5037478;28;20017;-75
2022/03/07 08:44:54;;;;;;;10.98;7.10;;;;;;;13.88;36.12;102865.53;5055072;28;20083;-74
2022/03/07 08:47:20;;;;;;;11.70;6.88;;;;;;;14.09;35.24;102864.28;5055118;28;20100;-75
2022/03/07 08:49:46;;;;;;;11.63;6.68;;;;;;;14.98;34.07;102879.16;5037332;28;20120;-75
2022/03/07 08:52:15;;;;;;;11.88;6.85;;;;;;;14.87;33.50;102871.69;5055081;28;20483;-74
2022/03/07 08:54:41;;;;;;;10.85;6.50;;;;;;;15.09;33.66;102873.59;5036953;28;20049;-74
2022/03/07 08:57:06;;;;;;;10.30;6.70;;;;;;;14.47;34.10;102870.69;5037178;28;20111;-74
2022/03/07 08:59:31;;;;;;;11.13;6.35;;;;;;;15.77;32.77;102872.28;5037045;28;20492;-74
2022/03/07 09:01:57;;;;;;;9.70;6.40;;;;;;;16.40;31.79;102862.59;5036857;28;20025;-75
2022/03/07 09:04:24;;;;;;;10.75;6.72;;;;;;;16.11;31.03;102859.84;5053898;28;20099;-75
2022/03/07 09:06:51;;;;;;;14.05;6.43;;;;;;;16.64;31.09;102861.59;5054756;28;20017;-75
2022/03/07 09:09:16;;;;;;;8.93;6.25;;;;;;;16.42;30.09;102863.22;5054261;28;20040;-75
2022/03/07 09:11:42;;;;;;;10.18;6.80;;;;;;;16.91;29.34;102848.97;5053278;28;20017;-74
2022/03/07 09:14:07;;;;;;;8.68;5.97;;;;;;;17.13;28.77;102858.53;5036781;28;20029;-75
2022/03/07 09:16:32;;;;;;;9.70;6.40;;;;;;;16.76;29.51;102848.09;5054735;28;20107;-75
2022/03/07 09:18:58;;;;;;;8.93;6.00;;;;;;;16.02;30.28;102840.84;5054630;28;20021;-74
2022/03/07 09:21:23;;;;;;;8.88;5.47;;;;;;;15.85;29.85;102855.75;5036569;28;20029;-73
2022/03/07 09:23:48;;;;;;;11.38;6.07;;;;;;;16.57;29.84;102854.63;5036709;28;20475;-73
2022/03/07 09:26:14;;;;;;;9.25;6.45;;;;;;;17.55;28.99;102853.63;5054564;28;20368;-74
2022/03/07 09:28:40;;;;;;;6.72;5.18;;;;;;;18.50;26.71;102852.63;5036839;28;20052;-73
2022/03/07 09:31:06;;;;;;;7.70;5.40;;;;;;;18.47;26.02;102847.72;5054396;28;20075;-74
2022/03/07 09:33:32;;;;;;;7.45;5.15;;;;;;;17.64;26.68;102857.78;5036451;28;20028;-74
2022/03/07 09:35:57;;;;;;;7.35;5.18;;;;;;;16.98;26.78;102867.34;5035206;28;20112;-74
2022/03/07 09:38:23;;;;;;;6.50;4.90;;;;;;;16.84;27.21;102856.69;5035989;28;20391;-74
2022/03/07 09:40:48;;;;;;;7.32;5.20;;;;;;;18.66;25.58;102852.31;5037010;28;20021;-74
2022/03/07 09:43:14;;;;;;;9.88;5.22;;;;;;;16.65;27.03;102846.72;5054115;28;20035;-74
2022/03/07 09:45:40;;;;;;;6.53;4.72;;;;;;;18.08;26.33;102838.53;5036233;28;20391;-74
2022/03/07 09:48:06;;;;;;;8.65;4.53;;;;;;;18.93;25.53;102850.72;5036073;28;20131;-74
2022/03/07 09:50:32;;;;;;;6.15;4.68;;;;;;;17.98;25.76;102835.41;5034025;28;20031;-74
2022/03/07 09:52:58;;;;;;;6.15;4.35;;;;;;;19.08;24.51;102828.84;5051674;28;20396;-74
2022/03/07 09:55:23;;;;;;;7.95;4.68;;;;;;;19.09;24.51;102828.63;5051880;28;20060;-73
2022/03/07 09:57:49;;;;;;;6.82;4.80;;;;;;;18.64;25.45;102828.16;5033771;28;20051;-73
2022/03/07 10:00:16;;;;;;;7.22;5.28;;;;;;;17.93;25.82;102820.28;5049807;28;20027;-73
2022/03/07 10:02:52;;;;;;;6.90;5.07;;;;;;;16.94;27.23;102822.47;5050414;28;20074;-74
2022/03/07 10:05:17;;;;;;;8.02;5.72;;;;;;;17.53;27.29;102816.41;5034104;28;20028;-73
2022/03/07 10:07:44;;;;;;;7.40;5.60;;;;;;;18.45;25.77;102818.34;5051935;28;20078;-73
2022/03/07 10:10:10;;;;;;;8.55;5.53;;;;;;;15.10;29.07;102827.53;5033468;28;20487;-73
2022/03/07 10:12:44;;;;;;;8.02;5.80;;;;;;;16.96;27.18;102810.06;5033145;28;20111;-73
2022/03/07 10:15:27;;;;;;;8.05;6.00;;;;;;;15.52;29.64;102813.41;5033374;28;20050;-72
2022/03/07 10:17:54;;;;;;;9.25;6.30;;;;;;;16.90;27.90;102802.94;5033298;28;20040;-73
2022/03/07 10:20:22;;;;;;;9.35;6.15;;;;;;;14.94;29.24;102801.56;5033390;28;20075;-72
2022/03/07 10:22:53;;;;;;;11.75;6.60;;;;;;;14.28;31.16;102799.00;5051296;28;20032;-74
2022/03/07 10:25:38;;;;;;;13.27;6.80;;;;;;;15.04;30.75;102804.78;5052119;28;20029;-74
2022/03/07 10:28:05;;;;;;;12.02;6.63;;;;;;;10.92;38.23;102795.66;5051787;28;20031;-73
2022/03/07 10:30:32;;;;;;;9.05;5.88;;;;;;;11.71;37.29;102795.22;5051821;28;20522;-73
2022/03/07 10:33:06;;;;;;;7.80;6.15;;;;;;;11.60;36.38;102785.03;5052045;28;20017;-74
2022/03/07 10:35:44;;;;;;;8.82;6.03;;;;;;;11.73;37.18;102787.28;5034483;28;20043;-73
2022/03/07 10:38:13;;;;;;;9.82;6.40;;;;;;;11.36;36.75;102776.97;5051178;28;20556;-72
2022/03/07 10:40:42;;;;;;;8.52;6.60;;;;;;;9.86;40.03;102778.38;5031750;28;20021;-73
2022/03/07 10:43:08;;;;;;;11.32;6.65;;;;;;;10.90;38.71;102781.22;5049905;28;20029;-72
2022/03/07 10:45:56;;;;;;;12.88;6.20;;;;;;;11.74;37.82;102773.38;5033150;28;20384;-72
2022/03/07 10:48:24;;;;;;;10.73;6.47;;;;;;;10.33;38.63;102776.81;5033012;28;20029;-73
2022/03/07 10:50:52;;;;;;;11.25;6.70;;;;;;;11.44;37.61;102758.94;5049909;28;20033;-73
2022/03/07 10:53:18;;;;;;;8.68;6.53;;;;;;;11.44;37.03;102764.94;5052632;28;20449;-73
2022/03/07 10:56:12;;;;;;;9.95;6.60;;;;;;;10.89;38.44;102762.31;5035476;28;20117;-74
2022/03/07 10:58:49;;;;;;;11.98;6.80;;;;;;;10.99;37.98;102754.50;5033377;28;20059;-72
2022/03/07 11:01:14;;;;;;;7.32;6.28;;;;;;;11.53;38.60;102745.13;5035318;28;20480;-73
2022/03/07 11:03:40;;;;;;;8.05;6.32;;;;;;;11.27;37.77;102742.41;5052319;28;20028;-73
2022/03/07 11:06:06;;;;;;;9.00;6.40;;;;;;;9.96;39.02;102740.47;5019556;28;20048;-74
2022/03/07 11:08:32;;;;;;;14.43;6.53;;;;;;;11.13;38.67;102733.34;5035195;28;20472;-74
2022/03/07 11:11:00;;;;;;;10.73;6.65;;;;;;;11.63;37.98;102737.31;5052523;28;20025;-74
2022/03/07 11:13:29;;;;;;;12.20;6.63;;;;;;;10.16;40.46;102739.53;5034279;28;20392;-73
2022/03/07 11:15:57;;;;;;;9.52;6.30;;;;;;;11.91;37.41;102738.09;5052849;28;20028;-73